RJSH(METAR)
08/24 02:00
METAR RJSH 231700Z 22012KT 9999 FEW030 SCT230 22/19 Q1004 RMK 1CU030
A2965=
戻る
トップページへ戻る
IMOC Co,.Ltd.